Time;durP1;ratioP1;P1;durP2;ratioP2;P2;SDS_P1;SDS_P2;PMS_P1;PMS_P2;Temp;Humidity;BMP_temperature;BMP_pressure;BME280_temperature;BME280_humidity;BME280_pressure;Samples;Min_cycle;Max_cycle;Signal;HPM_P1;HPM_P2
2021/04/09 00:02:40;;;;;;;17.40;13.00;;;;;;;5.47;47.38;101460.44;6234861;28;20281;-54
2021/04/09 00:06:01;;;;;;;17.17;14.00;;;;;;;5.65;47.04;101449.63;6233619;28;20228;-52
2021/04/09 00:09:21;;;;;;;15.83;14.23;;;;;;;5.61;46.80;101448.66;6234688;28;20236;-50
2021/04/09 00:12:42;;;;;;;14.93;13.50;;;;;;;5.40;47.41;101443.03;6238129;28;20240;-54
2021/04/09 00:16:02;;;;;;;13.60;12.27;;;;;;;5.41;47.19;101445.66;6232743;28;20236;-51
2021/04/09 00:19:26;;;;;;;15.97;13.63;;;;;;;5.46;47.10;101438.00;6232267;28;20240;-52
2021/04/09 00:22:47;;;;;;;17.17;12.87;;;;;;;6.02;46.25;101434.88;6230802;28;20236;-53
2021/04/09 00:26:07;;;;;;;16.60;14.90;;;;;;;5.84;46.33;101418.13;6231780;28;20233;-53
2021/04/09 00:29:28;;;;;;;15.30;13.90;;;;;;;5.69;46.73;101433.31;6227273;28;20240;-54
2021/04/09 00:32:48;;;;;;;15.23;13.73;;;;;;;6.07;46.01;101425.50;6229681;28;20239;-55
2021/04/09 00:36:10;;;;;;;15.20;13.80;;;;;;;5.90;46.34;101417.38;6242708;28;20342;-53
2021/04/09 00:39:30;;;;;;;15.10;13.43;;;;;;;5.71;46.69;101413.56;6226009;28;20637;-54
2021/04/09 00:42:51;;;;;;;17.17;12.60;;;;;;;5.78;46.47;101393.84;6221025;28;20686;-54
2021/04/09 00:46:11;;;;;;;15.23;13.77;;;;;;;5.86;46.63;101408.69;6222081;28;20556;-51
2021/04/09 00:49:32;;;;;;;16.40;14.80;;;;;;;5.99;46.00;101406.38;6223397;28;20232;-55
2021/04/09 00:52:55;;;;;;;14.20;11.47;;;;;;;5.99;46.01;101419.31;6205691;28;20311;-55
2021/04/09 00:56:20;;;;;;;15.27;12.63;;;;;;;5.87;46.23;101404.38;6228920;28;20236;-50
2021/04/09 00:59:41;;;;;;;15.33;13.77;;;;;;;5.70;46.47;101389.44;6224346;28;20232;-53
2021/04/09 01:03:01;;;;;;;15.07;13.57;;;;;;;5.71;46.71;101386.00;6234348;28;20289;-55
2021/04/09 01:06:23;;;;;;;15.33;13.00;;;;;;;5.88;46.31;101377.72;6239205;28;20235;-53
2021/04/09 01:09:44;;;;;;;13.97;12.07;;;;;;;5.80;46.38;101381.88;6226502;28;20384;-56
2021/04/09 01:13:05;;;;;;;15.10;12.23;;;;;;;5.67;46.81;101380.75;6226276;28;20240;-53
2021/04/09 01:16:41;;;;;;;15.33;13.93;;;;;;;6.02;46.24;101363.34;6222838;28;20236;-54
2021/04/09 01:20:45;;;;;;;15.27;13.70;;;;;;;5.59;46.53;101362.50;6223028;28;20229;-55
2021/04/09 01:24:34;;;;;;;12.23;11.07;;;;;;;5.72;46.76;101351.56;6137026;28;20247;-53
2021/04/09 01:28:08;;;;;;;14.57;13.07;;;;;;;5.90;46.65;101330.34;6208815;28;20229;-52
2021/04/09 01:31:47;;;;;;;15.17;13.60;;;;;;;5.52;47.06;101339.97;6233209;28;20776;-51
2021/04/09 01:35:11;;;;;;;15.27;13.57;;;;;;;5.43;47.18;101337.19;6240302;28;20227;-53
2021/04/09 01:38:37;;;;;;;15.43;13.53;;;;;;;5.49;47.22;101321.81;6239540;28;20236;-52
2021/04/09 01:42:00;;;;;;;14.47;12.93;;;;;;;5.65;47.22;101320.41;6233848;28;20240;-52
2021/04/09 01:45:23;;;;;;;16.83;13.57;;;;;;;5.79;47.21;101328.41;6232221;28;20519;-52
2021/04/09 01:48:47;;;;;;;19.07;15.10;;;;;;;5.58;47.10;101315.97;6228322;28;21114;-54
2021/04/09 01:52:10;;;;;;;14.30;12.80;;;;;;;5.43;47.54;101313.94;6230539;28;20610;-53
2021/04/09 01:55:33;;;;;;;15.13;13.53;;;;;;;5.54;47.43;101309.84;6227524;28;20252;-52
2021/04/09 01:58:54;;;;;;;15.53;14.00;;;;;;;5.35;47.52;101313.81;6224206;28;20236;-52
2021/04/09 02:02:16;;;;;;;16.07;13.17;;;;;;;5.59;47.18;101292.75;6231355;28;20223;-55
2021/04/09 02:05:39;;;;;;;13.47;12.10;;;;;;;5.26;47.83;101293.81;6235427;28;20225;-53
2021/04/09 02:09:01;;;;;;;15.70;13.73;;;;;;;5.64;47.19;101277.31;6233854;28;20255;-52
2021/04/09 02:12:21;;;;;;;15.77;14.17;;;;;;;5.46;47.43;101265.78;6230066;28;20235;-53
2021/04/09 02:15:43;;;;;;;16.83;13.90;;;;;;;5.56;47.26;101253.03;6232433;28;20233;-53
2021/04/09 02:19:04;;;;;;;15.60;13.23;;;;;;;5.39;47.52;101257.88;6220840;28;20224;-49
2021/04/09 02:22:25;;;;;;;14.40;12.77;;;;;;;5.43;47.72;101250.25;6246201;28;20240;-52
2021/04/09 02:25:46;;;;;;;15.80;14.20;;;;;;;5.49;47.40;101239.16;6231403;28;20229;-51
2021/04/09 02:29:06;;;;;;;15.03;13.43;;;;;;;5.44;47.50;101244.22;6215002;28;20233;-54
2021/04/09 02:32:27;;;;;;;14.17;12.87;;;;;;;5.35;48.15;101244.06;6222599;28;20319;-54
2021/04/09 02:35:47;;;;;;;15.60;12.07;;;;;;;5.49;47.44;101240.03;6238160;28;20228;-54
2021/04/09 02:39:13;;;;;;;13.50;12.10;;;;;;;5.48;47.21;101233.09;6227506;28;20240;-52
2021/04/09 02:42:33;;;;;;;17.90;14.80;;;;;;;5.57;47.77;101228.97;6224830;28;20224;-53
2021/04/09 02:45:54;;;;;;;14.13;12.70;;;;;;;5.49;47.58;101218.50;6229218;28;20236;-53
2021/04/09 02:49:22;;;;;;;14.67;13.20;;;;;;;5.63;47.39;101222.19;6227452;28;20327;-56
2021/04/09 02:52:51;;;;;;;15.93;13.13;;;;;;;5.33;48.39;101213.03;6232454;28;20256;-51
2021/04/09 02:56:13;;;;;;;14.77;13.23;;;;;;;5.54;47.71;101203.94;6230349;28;20227;-56
2021/04/09 02:59:35;;;;;;;15.43;14.00;;;;;;;5.49;47.85;101192.66;6230222;28;20236;-53
2021/04/09 03:02:56;;;;;;;17.37;13.37;;;;;;;5.31;48.38;101194.06;6221968;28;20228;-56
2021/04/09 03:06:17;;;;;;;13.57;12.27;;;;;;;5.60;47.43;101172.16;6233693;28;20244;-51
2021/04/09 03:09:38;;;;;;;14.27;12.87;;;;;;;5.19;48.49;101198.13;6234162;28;22912;-53
2021/04/09 03:13:01;;;;;;;15.23;13.63;;;;;;;5.50;47.75;101178.88;6236470;28;20565;-50
2021/04/09 03:16:25;;;;;;;18.30;14.10;;;;;;;5.54;47.57;101157.41;6223726;28;20224;-56
2021/04/09 03:19:46;;;;;;;15.30;13.73;;;;;;;5.33;48.06;101163.06;6237831;28;20255;-53
2021/04/09 03:23:06;;;;;;;15.70;14.13;;;;;;;5.40;47.75;101151.16;6238857;28;20244;-52
2021/04/09 03:26:26;;;;;;;16.47;13.17;;;;;;;5.51;47.62;101144.47;6233002;28;20618;-53
2021/04/09 03:29:48;;;;;;;16.20;13.53;;;;;;;5.32;48.31;101161.34;6233269;28;20236;-50
2021/04/09 03:33:08;;;;;;;17.07;13.70;;;;;;;5.38;48.05;101137.34;6237674;28;20255;-52
2021/04/09 03:36:29;;;;;;;13.67;12.10;;;;;;;5.11;49.13;101151.50;6238321;28;20236;-54
2021/04/09 03:39:49;;;;;;;14.90;12.70;;;;;;;5.16;48.37;101147.31;6238743;28;20237;-55
2021/04/09 03:43:10;;;;;;;15.40;13.70;;;;;;;5.38;48.09;101127.03;6233864;28;20645;-53
2021/04/09 03:46:32;;;;;;;17.73;14.87;;;;;;;5.17;48.52;101143.84;6233731;28;20320;-49
2021/04/09 03:49:52;;;;;;;17.10;14.60;;;;;;;5.38;48.18;101132.19;6233673;28;20237;-54
2021/04/09 03:53:13;;;;;;;16.13;12.70;;;;;;;5.17;49.03;101136.13;6235206;28;20232;-54
2021/04/09 03:56:33;;;;;;;16.40;14.57;;;;;;;5.28;48.07;101116.53;6227367;28;20246;-54
2021/04/09 03:59:54;;;;;;;16.87;12.77;;;;;;;5.02;48.68;101134.16;6227801;28;20228;-54
2021/04/09 04:03:15;;;;;;;16.13;12.77;;;;;;;5.39;47.91;101113.25;6232887;28;20236;-55
2021/04/09 04:06:36;;;;;;;13.70;12.30;;;;;;;5.16;48.39;101108.56;6234028;28;20303;-54
2021/04/09 04:09:56;;;;;;;15.20;13.43;;;;;;;5.19;48.50;101108.59;6236832;28;20747;-51
2021/04/09 04:13:17;;;;;;;18.20;15.23;;;;;;;5.38;48.04;101083.97;6228230;28;20249;-53
2021/04/09 04:16:38;;;;;;;17.50;13.63;;;;;;;5.35;48.49;101094.28;6226829;28;20228;-52
2021/04/09 04:19:59;;;;;;;16.07;12.73;;;;;;;5.36;48.72;101087.38;6229029;28;20220;-54
2021/04/09 04:23:20;;;;;;;16.83;12.90;;;;;;;5.46;48.36;101091.84;6238589;28;20248;-53
2021/04/09 04:26:40;;;;;;;18.53;12.37;;;;;;;5.28;48.91;101080.38;6235882;28;20331;-54
2021/04/09 04:30:01;;;;;;;14.53;12.40;;;;;;;5.40;48.44;101086.59;6238963;28;20229;-53
2021/04/09 04:33:22;;;;;;;12.83;11.53;;;;;;;5.65;47.94;101077.50;6235508;28;20221;-55
2021/04/09 04:36:43;;;;;;;20.97;12.63;;;;;;;5.56;48.46;101069.63;6234282;28;20302;-51
2021/04/09 04:40:05;;;;;;;16.47;11.97;;;;;;;5.33;48.70;101073.56;6234439;28;20221;-54
2021/04/09 04:43:25;;;;;;;15.83;14.17;;;;;;;5.49;48.79;101085.03;6228846;28;20262;-53
2021/04/09 04:46:46;;;;;;;17.57;13.63;;;;;;;5.42;48.84;101079.72;6232904;28;20228;-51
2021/04/09 04:50:08;;;;;;;16.70;13.50;;;;;;;5.47;48.62;101070.34;6233228;28;20240;-53
2021/04/09 04:53:29;;;;;;;14.60;12.00;;;;;;;5.29;49.12;101092.44;6235395;28;20237;-57
2021/04/09 04:56:49;;;;;;;15.90;13.27;;;;;;;5.23;49.44;101082.00;6228329;28;20960;-55
2021/04/09 05:00:11;;;;;;;19.33;12.37;;;;;;;5.51;48.90;101073.00;6226560;28;20283;-52
2021/04/09 05:03:31;;;;;;;16.80;12.63;;;;;;;5.42;49.51;101062.50;6225458;28;21117;-50
2021/04/09 05:06:51;;;;;;;16.20;13.43;;;;;;;5.48;49.24;101072.06;6229546;28;20606;-56
2021/04/09 05:10:13;;;;;;;16.17;12.47;;;;;;;5.39;50.00;101077.09;6217076;28;20236;-55
2021/04/09 05:13:33;;;;;;;20.67;12.43;;;;;;;5.39;49.32;101074.50;6228893;28;20323;-53
2021/04/09 05:16:54;;;;;;;18.63;12.93;;;;;;;5.33;50.06;101073.56;6223701;28;20225;-52
2021/04/09 05:20:15;;;;;;;14.87;13.23;;;;;;;5.63;49.36;101082.66;6225842;28;20839;-54
2021/04/09 05:23:36;;;;;;;15.73;11.37;;;;;;;5.33;50.06;101073.56;6224345;28;20681;-51
2021/04/09 05:26:57;;;;;;;21.40;14.27;;;;;;;5.38;50.15;101072.78;6214068;28;20232;-55
2021/04/09 05:30:19;;;;;;;19.07;12.93;;;;;;;5.40;49.79;101066.78;6225521;28;21698;-53
2021/04/09 05:33:39;;;;;;;15.17;12.70;;;;;;;5.22;51.10;101059.63;6226836;28;20229;-53
2021/04/09 05:37:01;;;;;;;15.07;13.33;;;;;;;5.51;50.38;101067.81;6226899;28;20220;-53
2021/04/09 05:40:21;;;;;;;16.87;14.10;;;;;;;5.55;50.17;101070.47;6220762;28;20522;-53
2021/04/09 05:43:43;;;;;;;14.67;12.20;;;;;;;5.21;51.23;101068.19;6222971;28;20248;-52
2021/04/09 05:47:04;;;;;;;15.50;12.63;;;;;;;5.44;50.39;101065.13;6230956;28;20224;-53
2021/04/09 05:50:24;;;;;;;17.57;13.60;;;;;;;5.56;50.79;101064.44;6215230;28;20240;-56
2021/04/09 05:53:45;;;;;;;20.27;13.10;;;;;;;5.39;50.96;101074.50;6230170;28;20228;-56
2021/04/09 05:57:07;;;;;;;14.07;11.30;;;;;;;5.30;51.27;101060.59;6221343;28;20236;-55
2021/04/09 06:00:28;;;;;;;13.83;11.43;;;;;;;5.46;51.39;101068.59;6227633;28;20236;-55
2021/04/09 06:03:49;;;;;;;14.57;12.47;;;;;;;5.72;50.70;101061.25;6235522;28;20236;-55
2021/04/09 06:07:09;;;;;;;21.77;12.60;;;;;;;5.46;51.24;101069.47;6237771;28;20227;-58
2021/04/09 06:10:30;;;;;;;13.53;11.80;;;;;;;5.19;52.22;101074.19;6230408;28;20232;-54
2021/04/09 06:13:51;;;;;;;17.00;13.70;;;;;;;5.46;51.67;101053.09;6220494;28;20231;-54
2021/04/09 06:17:13;;;;;;;16.00;13.80;;;;;;;5.78;50.94;101056.19;6228040;28;20244;-55
2021/04/09 06:20:34;;;;;;;16.03;12.70;;;;;;;5.62;51.25;101055.09;6227173;28;20232;-56
2021/04/09 06:23:54;;;;;;;16.67;14.00;;;;;;;5.54;51.62;101051.50;6214818;28;20228;-56
2021/04/09 06:27:15;;;;;;;15.77;12.27;;;;;;;5.37;52.69;101059.00;6224358;28;20224;-55
2021/04/09 06:30:36;;;;;;;13.13;11.13;;;;;;;5.51;52.12;101043.72;6221796;28;20601;-54
2021/04/09 06:33:57;;;;;;;15.93;13.43;;;;;;;5.18;54.99;101038.91;6226686;28;20343;-56
2021/04/09 06:37:18;;;;;;;18.50;14.47;;;;;;;5.33;54.91;101033.94;6232991;28;20331;-52
2021/04/09 06:40:41;;;;;;;13.43;11.53;;;;;;;5.14;54.59;101045.72;6221177;28;20235;-54
2021/04/09 06:44:01;;;;;;;16.07;12.33;;;;;;;5.38;55.20;101034.03;6218516;28;20343;-56
2021/04/09 06:47:22;;;;;;;21.23;13.77;;;;;;;5.46;54.45;101048.78;6209898;28;20221;-51
2021/04/09 06:50:43;;;;;;;16.23;12.27;;;;;;;5.35;54.57;101033.97;6229643;28;20672;-55
2021/04/09 06:54:05;;;;;;;13.90;12.33;;;;;;;5.48;54.45;101033.31;6224823;28;20228;-56
2021/04/09 06:57:28;;;;;;;19.50;13.53;;;;;;;5.56;54.77;101029.13;6223854;28;20239;-55
2021/04/09 07:00:51;;;;;;;17.10;13.52;;;;;;;5.76;53.41;101031.13;6228876;28;20735;-54
2021/04/09 07:04:12;;;;;;;16.73;12.23;;;;;;;5.86;53.10;101039.06;6232479;28;20236;-50
2021/04/09 07:07:33;;;;;;;15.80;13.97;;;;;;;6.21;51.96;101022.31;6239491;28;20228;-48
2021/04/09 07:10:54;;;;;;;14.97;12.90;;;;;;;6.27;51.89;101035.31;6224149;28;20237;-55
2021/04/09 07:14:14;;;;;;;16.30;12.13;;;;;;;5.97;53.03;101023.72;6223689;28;20272;-54
2021/04/09 07:17:36;;;;;;;16.87;13.83;;;;;;;6.07;52.78;101023.00;6238226;28;20628;-54
2021/04/09 07:20:56;;;;;;;18.50;14.77;;;;;;;6.14;52.93;101029.09;6229710;28;20240;-55
2021/04/09 07:24:21;;;;;;;14.77;12.00;;;;;;;6.21;52.62;101011.97;6225710;28;21608;-53
2021/04/09 07:27:44;;;;;;;16.03;12.93;;;;;;;6.45;52.61;101019.97;6203523;28;20323;-52
2021/04/09 07:31:08;;;;;;;16.67;13.23;;;;;;;6.55;52.09;101014.91;6218916;28;20237;-55
2021/04/09 07:34:50;;;;;;;18.23;15.67;;;;;;;6.85;51.57;101024.72;6232226;28;20228;-52
2021/04/09 07:38:18;;;;;;;19.80;15.17;;;;;;;6.45;52.53;101019.97;6226841;28;20245;-55
2021/04/09 07:41:39;;;;;;;14.77;13.33;;;;;;;6.40;52.95;101018.22;6223160;28;20224;-56
2021/04/09 07:45:03;;;;;;;19.27;14.00;;;;;;;6.39;52.91;101025.09;6229821;28;20225;-55
2021/04/09 07:48:31;;;;;;;19.07;13.57;;;;;;;6.74;52.47;101018.56;6236128;28;22083;-52
2021/04/09 07:52:08;;;;;;;17.20;13.53;;;;;;;6.82;52.16;101020.34;6236427;28;20232;-52
2021/04/09 07:55:30;;;;;;;14.67;13.03;;;;;;;6.66;52.20;101021.06;6230880;28;20232;-54
2021/04/09 07:58:56;;;;;;;16.43;13.17;;;;;;;7.11;51.72;101030.13;6229221;28;20229;-57
2021/04/09 08:02:16;;;;;;;15.40;13.33;;;;;;;6.94;52.05;101036.88;6225636;28;20248;-52
2021/04/09 08:05:37;;;;;;;16.17;14.50;;;;;;;7.18;51.54;101021.56;6234835;28;20529;-52
2021/04/09 08:08:58;;;;;;;15.07;12.43;;;;;;;6.96;51.89;101049.00;6226856;28;20613;-54
2021/04/09 08:12:25;;;;;;;14.93;11.70;;;;;;;7.03;52.19;101021.41;6228999;28;20245;-54
2021/04/09 08:15:46;;;;;;;17.00;13.07;;;;;;;7.23;51.80;101019.88;6232256;28;20251;-52
2021/04/09 08:19:09;;;;;;;14.57;13.17;;;;;;;7.51;51.30;101026.97;6218525;28;20308;-51
2021/04/09 08:22:30;;;;;;;16.87;15.03;;;;;;;7.72;50.71;101023.66;6232466;28;20240;-54
2021/04/09 08:25:53;;;;;;;15.70;12.57;;;;;;;7.39;51.52;101017.41;6235432;28;20319;-56
2021/04/09 08:29:15;;;;;;;18.40;12.60;;;;;;;7.87;50.82;101015.94;6234192;28;20228;-49
2021/04/09 08:32:36;;;;;;;15.40;12.67;;;;;;;7.84;50.76;101023.72;6232645;28;20239;-48
2021/04/09 08:35:57;;;;;;;13.97;12.47;;;;;;;8.26;49.91;101014.41;6207481;28;20237;-50
2021/04/09 08:39:19;;;;;;;13.37;11.53;;;;;;;7.97;50.73;101011.66;6234920;28;20232;-52
2021/04/09 08:42:40;;;;;;;14.57;11.60;;;;;;;8.17;50.42;101006.59;6227329;28;20271;-52
2021/04/09 08:46:01;;;;;;;15.63;12.67;;;;;;;8.03;50.77;101017.78;6227491;28;20721;-54
2021/04/09 08:49:24;;;;;;;20.37;14.53;;;;;;;8.39;49.84;101005.78;6225770;28;20315;-50
2021/04/09 08:52:46;;;;;;;19.43;13.37;;;;;;;8.41;50.16;101010.97;6224132;28;20236;-56
2021/04/09 08:56:10;;;;;;;15.60;12.50;;;;;;;8.38;50.20;101019.63;6227956;28;20236;-55
2021/04/09 08:59:41;;;;;;;12.57;10.77;;;;;;;8.00;51.31;101022.06;6226017;28;20235;-53
2021/04/09 09:03:02;;;;;;;15.13;11.27;;;;;;;8.77;49.63;101012.84;6229348;28;20236;-56
2021/04/09 09:06:41;;;;;;;18.07;13.23;;;;;;;8.67;49.64;101003.31;6230382;28;20249;-51
2021/04/09 09:10:53;;;;;;;13.53;11.70;;;;;;;8.67;50.43;101000.72;6232175;28;20610;-55
2021/04/09 09:14:38;;;;;;;16.00;12.03;;;;;;;8.91;49.86;101009.41;6227638;28;20232;-54
2021/04/09 09:17:59;;;;;;;13.87;10.67;;;;;;;8.30;51.06;101023.94;6227664;28;20233;-52
2021/04/09 09:21:26;;;;;;;16.87;12.63;;;;;;;8.52;50.88;101032.69;6230061;28;20229;-53
2021/04/09 09:25:02;;;;;;;15.70;11.90;;;;;;;8.94;50.24;101012.00;6227558;28;20228;-55
2021/04/09 09:28:30;;;;;;;17.43;12.83;;;;;;;9.06;49.76;101027.59;6224562;28;20228;-52
2021/04/09 09:31:59;;;;;;;15.13;12.00;;;;;;;9.18;49.61;101006.78;6227986;28;20243;-56
2021/04/09 09:35:53;;;;;;;15.07;13.47;;;;;;;10.08;48.20;101007.50;6220710;28;20302;-58
2021/04/09 09:39:31;;;;;;;14.20;12.37;;;;;;;9.74;49.12;100996.31;6228092;28;21088;-53
2021/04/09 09:42:53;;;;;;;12.17;10.87;;;;;;;9.68;49.01;100994.59;6223305;28;20233;-54
2021/04/09 09:46:51;;;;;;;15.70;11.97;;;;;;;10.34;47.60;100989.16;6215818;28;20232;-54
2021/04/09 09:50:25;;;;;;;15.63;11.87;;;;;;;10.04;48.06;100993.63;6222964;28;20224;-58
2021/04/09 09:53:55;;;;;;;13.57;11.70;;;;;;;10.33;47.59;100997.88;6224209;28;20228;-57
2021/04/09 09:57:43;;;;;;;20.17;11.03;;;;;;;10.05;48.35;101000.53;6225174;28;20590;-55
2021/04/09 10:01:06;;;;;;;13.20;11.10;;;;;;;10.42;47.48;100996.94;6219400;28;20851;-52
2021/04/09 10:04:27;;;;;;;16.50;10.53;;;;;;;10.38;47.96;100998.69;6195160;28;20229;-54
2021/04/09 10:07:47;;;;;;;11.67;10.43;;;;;;;9.96;48.82;100995.38;6226206;28;20233;-57
2021/04/09 10:11:15;;;;;;;11.70;10.03;;;;;;;10.36;47.91;101013.47;6222363;28;20244;-56
2021/04/09 10:14:43;;;;;;;13.50;10.93;;;;;;;10.56;47.36;101013.34;6220187;28;20545;-53
2021/04/09 10:18:07;;;;;;;15.93;9.07;;;;;;;9.58;49.22;101017.16;6228436;28;20240;-55
2021/04/09 10:21:31;;;;;;;12.40;11.10;;;;;;;10.69;46.83;100997.66;6224426;28;20800;-56
2021/04/09 10:24:51;;;;;;;16.83;10.60;;;;;;;10.76;47.08;101014.94;6222822;28;20614;-54
2021/04/09 10:28:13;;;;;;;12.73;10.87;;;;;;;10.98;46.21;101000.03;6230373;28;20511;-56
2021/04/09 10:31:33;;;;;;;11.67;10.57;;;;;;;10.65;46.92;101017.63;6198119;28;20629;-55
2021/04/09 10:34:54;;;;;;;17.00;11.00;;;;;;;11.46;45.22;101004.81;6221673;28;20251;-53
2021/04/09 10:38:17;;;;;;;12.30;10.50;;;;;;;10.73;47.41;101001.97;6223287;28;20232;-57
2021/04/09 10:41:38;;;;;;;10.60;9.50;;;;;;;10.88;46.58;101001.84;6223558;28;20240;-52
2021/04/09 10:44:59;;;;;;;10.37;9.27;;;;;;;11.00;46.22;100995.69;6211133;28;20232;-51
2021/04/09 10:48:21;;;;;;;10.17;8.37;;;;;;;11.04;46.20;101010.41;6226376;28;20228;-56
2021/04/09 10:51:45;;;;;;;9.90;8.23;;;;;;;10.66;46.36;101003.72;6226076;28;20258;-53
2021/04/09 10:55:07;;;;;;;10.93;8.67;;;;;;;10.56;46.60;101022.91;6226375;28;20232;-54
2021/04/09 10:58:27;;;;;;;10.00;8.97;;;;;;;10.90;46.32;100987.06;6230447;28;20505;-55
2021/04/09 11:01:48;;;;;;;9.57;8.57;;;;;;;10.71;47.03;101012.38;6223032;28;20236;-50
2021/04/09 11:05:10;;;;;;;9.60;8.50;;;;;;;11.42;45.51;100997.06;6227645;28;20228;-54
2021/04/09 11:08:38;;;;;;;9.30;7.20;;;;;;;10.97;45.87;101000.91;6219267;28;20501;-51
2021/04/09 11:11:59;;;;;;;11.20;8.03;;;;;;;10.70;47.36;101008.06;6215141;28;20232;-55
2021/04/09 11:15:19;;;;;;;11.27;9.67;;;;;;;11.04;46.70;101013.03;6213916;28;20252;-53
2021/04/09 11:18:48;;;;;;;11.80;7.83;;;;;;;11.06;46.28;100992.16;6220582;28;20236;-55
2021/04/09 11:22:09;;;;;;;9.90;8.67;;;;;;;10.95;46.65;100993.13;6218239;28;20228;-54
2021/04/09 11:25:35;;;;;;;11.57;8.20;;;;;;;11.31;45.81;100995.44;6218176;28;20248;-56
2021/04/09 11:28:55;;;;;;;9.90;7.70;;;;;;;11.23;45.19;100990.28;6208674;28;20228;-53
2021/04/09 11:32:18;;;;;;;10.07;8.13;;;;;;;11.00;44.92;100986.13;6211749;28;20233;-55
2021/04/09 11:35:38;;;;;;;9.83;8.53;;;;;;;11.23;44.51;101001.56;6208191;28;20248;-56
2021/04/09 11:39:08;;;;;;;11.67;7.70;;;;;;;11.42;44.62;100996.19;6213837;28;20679;-56
2021/04/09 11:42:31;;;;;;;10.37;8.23;;;;;;;12.89;41.59;100982.16;6219004;28;20323;-49
2021/04/09 11:45:52;;;;;;;9.33;8.43;;;;;;;11.02;45.09;100997.41;6213489;28;20955;-57
2021/04/09 11:49:13;;;;;;;10.47;7.60;;;;;;;12.27;44.40;100969.13;6208747;28;20256;-57
2021/04/09 11:52:51;;;;;;;10.00;7.07;;;;;;;11.55;44.78;100996.91;6220346;28;21820;-57
2021/04/09 11:56:12;;;;;;;9.80;7.17;;;;;;;10.66;46.39;100982.88;6216737;28;20236;-56
2021/04/09 11:59:35;;;;;;;7.43;6.73;;;;;;;10.78;46.19;100987.19;6211412;28;20233;-56
2021/04/09 12:02:58;;;;;;;7.57;6.80;;;;;;;10.70;46.59;100981.13;6212167;28;20236;-56
2021/04/09 12:06:19;;;;;;;9.93;6.60;;;;;;;10.85;46.67;100988.84;6219456;28;20240;-56
2021/04/09 12:09:41;;;;;;;9.17;7.90;;;;;;;10.86;46.09;100992.31;6221439;28;20229;-58
2021/04/09 12:13:03;;;;;;;9.30;8.03;;;;;;;11.01;46.07;100992.19;6231124;28;20897;-56
2021/04/09 12:16:25;;;;;;;11.43;7.97;;;;;;;11.25;45.92;100985.06;6226322;28;20229;-55
2021/04/09 12:19:47;;;;;;;10.30;8.87;;;;;;;10.76;46.85;100995.00;6234315;28;20229;-54
2021/04/09 12:23:07;;;;;;;7.90;7.20;;;;;;;10.79;47.33;100994.97;6225808;28;20240;-57
2021/04/09 12:26:28;;;;;;;9.80;8.07;;;;;;;10.54;48.29;100996.00;6232603;28;20225;-55
2021/04/09 12:29:48;;;;;;;9.60;7.77;;;;;;;11.22;46.39;101001.56;6230433;28;20236;-55
2021/04/09 12:33:10;;;;;;;10.37;8.10;;;;;;;10.89;47.23;100994.91;6219724;28;20323;-56
2021/04/09 12:36:30;;;;;;;9.03;8.10;;;;;;;10.39;48.59;100995.22;6232872;28;20224;-57
2021/04/09 12:39:51;;;;;;;10.10;8.10;;;;;;;10.72;47.35;101005.44;6221400;28;20228;-53
2021/04/09 12:43:11;;;;;;;8.27;7.47;;;;;;;10.92;47.53;100980.09;6229013;28;20610;-55
2021/04/09 12:46:32;;;;;;;9.03;7.63;;;;;;;11.18;46.46;100992.06;6222595;28;20761;-58
2021/04/09 12:49:54;;;;;;;11.77;8.47;;;;;;;10.48;47.99;101009.91;6219536;28;20240;-55
2021/04/09 12:53:14;;;;;;;8.47;7.67;;;;;;;10.74;47.69;100991.53;6231234;28;20514;-57
2021/04/09 12:56:35;;;;;;;8.40;7.63;;;;;;;11.36;46.36;100996.22;6228555;28;20232;-58
2021/04/09 12:59:56;;;;;;;11.47;7.53;;;;;;;11.04;46.91;101000.84;6213898;28;20232;-55
2021/04/09 13:03:16;;;;;;;13.00;9.37;;;;;;;10.66;48.03;100990.72;6234462;28;20236;-56
2021/04/09 13:06:38;;;;;;;9.57;8.57;;;;;;;10.77;48.02;100982.84;6226596;28;20261;-54
2021/04/09 13:09:58;;;;;;;9.63;8.07;;;;;;;10.82;47.49;100994.94;6223652;28;20602;-53
2021/04/09 13:13:19;;;;;;;9.93;8.97;;;;;;;10.76;47.87;100995.00;6224089;28;20319;-55
2021/04/09 13:16:39;;;;;;;9.63;8.63;;;;;;;10.43;48.75;100986.53;6225502;28;20232;-55
2021/04/09 13:20:00;;;;;;;10.10;8.73;;;;;;;10.70;48.31;100997.66;6227899;28;20729;-56
2021/04/09 13:23:23;;;;;;;11.67;9.03;;;;;;;10.58;48.35;100989.91;6224001;28;20220;-54
2021/04/09 13:26:43;;;;;;;10.40;8.33;;;;;;;10.75;48.63;101000.22;6223823;28;20583;-51
2021/04/09 13:30:05;;;;;;;8.07;7.07;;;;;;;10.62;48.76;100975.97;6235932;28;20586;-57
2021/04/09 13:33:28;;;;;;;9.07;7.90;;;;;;;10.44;49.61;100984.78;6228834;28;20260;-56
2021/04/09 13:36:48;;;;;;;8.43;7.63;;;;;;;10.46;50.08;100985.63;6231253;28;20237;-56
2021/04/09 13:40:12;;;;;;;12.57;9.07;;;;;;;10.65;49.28;100989.00;6232974;28;20236;-53
2021/04/09 13:43:33;;;;;;;9.60;8.13;;;;;;;11.07;48.91;100989.56;6227931;28;20633;-54
2021/04/09 13:46:53;;;;;;;9.80;8.90;;;;;;;10.68;49.11;100996.75;6233370;28;20532;-56
2021/04/09 13:50:15;;;;;;;10.47;8.70;;;;;;;10.78;49.50;100998.47;6245716;28;21108;-54
2021/04/09 13:53:37;;;;;;;9.20;8.10;;;;;;;10.67;49.14;100994.19;6226111;28;20311;-54
2021/04/09 13:56:58;;;;;;;11.43;8.57;;;;;;;10.79;49.69;100974.13;6216926;28;20260;-52
2021/04/09 14:00:20;;;;;;;10.70;8.90;;;;;;;10.36;50.39;100990.03;6233966;28;20515;-53
2021/04/09 14:03:41;;;;;;;8.30;7.43;;;;;;;10.52;50.29;101008.16;6227379;28;20227;-54
2021/04/09 14:07:02;;;;;;;9.20;7.87;;;;;;;10.42;50.20;100999.53;6236072;28;20236;-50
2021/04/09 14:10:24;;;;;;;9.60;7.80;;;;;;;10.28;51.05;101010.00;6244995;28;20236;-54
2021/04/09 14:13:45;;;;;;;10.87;8.40;;;;;;;10.54;50.90;101003.81;6230269;28;20232;-55
2021/04/09 14:17:09;;;;;;;10.73;7.07;;;;;;;10.84;50.52;101001.00;6227832;28;20231;-54
2021/04/09 14:20:30;;;;;;;8.50;7.27;;;;;;;10.96;50.21;101013.09;6230152;28;20796;-55
2021/04/09 14:23:51;;;;;;;10.30;7.80;;;;;;;11.34;50.42;101039.69;6222306;28;20233;-53
2021/04/09 14:27:11;;;;;;;6.60;6.00;;;;;;;10.72;54.92;101060.13;6219610;28;20261;-52
2021/04/09 14:30:32;;;;;;;4.40;3.60;;;;;;;10.52;56.53;101061.09;6222138;28;20639;-55
2021/04/09 14:33:52;;;;;;;5.07;4.13;;;;;;;10.04;58.87;101079.50;6237071;28;20236;-55
2021/04/09 14:37:13;;;;;;;4.97;3.20;;;;;;;9.64;61.04;101079.56;6233135;28;20598;-55
2021/04/09 14:40:34;;;;;;;3.97;3.23;;;;;;;9.69;60.86;101078.69;6232651;28;20535;-53
2021/04/09 14:43:54;;;;;;;3.07;2.80;;;;;;;9.70;59.54;101070.88;6233704;28;20225;-54
2021/04/09 14:47:15;;;;;;;2.33;1.90;;;;;;;9.76;58.79;101059.59;6222950;28;20224;-54
2021/04/09 14:50:36;;;;;;;5.37;2.67;;;;;;;9.60;58.97;101077.84;6219224;28;20233;-55
2021/04/09 14:53:58;;;;;;;4.03;2.83;;;;;;;10.02;57.69;101094.25;6218893;28;20259;-56
2021/04/09 14:57:19;;;;;;;2.57;1.80;;;;;;;9.89;57.31;101108.16;6223799;28;20738;-57
2021/04/09 15:00:39;;;;;;;6.17;2.73;;;;;;;9.37;58.49;101113.38;6215899;28;20253;-56
2021/04/09 15:04:00;;;;;;;10.27;5.80;;;;;;;9.38;58.23;101122.88;6229694;28;20220;-54
2021/04/09 15:07:21;;;;;;;8.80;4.90;;;;;;;9.41;58.10;101122.91;6214958;28;20237;-58
2021/04/09 15:10:41;;;;;;;6.27;4.97;;;;;;;9.31;58.05;101123.75;6223279;28;20415;-57
2021/04/09 15:14:02;;;;;;;5.70;3.27;;;;;;;9.04;58.30;101162.69;6234359;28;20934;-55
2021/04/09 15:17:22;;;;;;;7.50;2.47;;;;;;;8.81;59.95;101157.41;6231085;28;20236;-55
2021/04/09 15:20:44;;;;;;;8.27;3.90;;;;;;;8.81;60.00;101128.84;6230454;28;20237;-53
2021/04/09 15:24:05;;;;;;;5.30;3.10;;;;;;;9.00;59.69;101127.16;6226641;28;20324;-53
2021/04/09 15:27:26;;;;;;;10.57;5.50;;;;;;;9.21;60.39;101133.28;6231477;28;20282;-52
2021/04/09 15:30:47;;;;;;;17.97;13.60;;;;;;;9.20;60.71;101128.94;6226561;28;20248;-54
2021/04/09 15:34:08;;;;;;;8.53;4.07;;;;;;;9.25;60.59;101127.22;6216266;28;20237;-53
2021/04/09 15:37:30;;;;;;;9.10;4.23;;;;;;;9.27;60.05;101126.34;6229326;28;20233;-54